Tetbury, United Kingdom
Current Conditions -  °F | °C
As of 5:28 AM on Thursday 23 Oct 2014 (Local Time) from EGVA Reporting Station
Overcast Overcast  
Wind Chill: 52°   Ceiling: 1700
Heat Index: 52°   Visibility: 6mi
Dew Point: 48°   Wind: 8mph
Humidity: 88%   Direction: 230°SW
Pressure: 30.11"   Gusts: NA
Location:  51.64°N, 2.16°W
Report Text: EGVA 230428Z AUTO 23007KT 9999 BKN017 OVC024 11/09 A3011 RMK AO2
Loading
Personal Weather Stations






























Interactive Weather Map New forecast layout! Learn more

10-Day Weather Forecast

Advertisements
Track Severe Weather on mobile